Shenandoah Valley Regional Airport

Airport
ICAO code: 
KSHD
Summary
ICAO Region: 
NAM
Territory: 
Location: 
Staunton, Virginia,
Coordinates: 
Aerial View: 
38° 15' 47.47" N, 78° 54' 2.275" W
Airport WX: 
Cumulonimbus
Metar
Observation
KSHD 021015Z AUTO 00000KT 10SM CLR 06/01 A2992 RMK AO2 T00560014
Station
Staunton / Shenandoah
Date/Time
2021-12-02 10:15:00
Wind direction
Wind speed
00 kts
Lowest cloud amount
n/a
Temperature
5.6°C
Dew point
1.4°C
Humidity
74%
Weather condition
n/a

Description

Shenandoah Valley Regional Airport is a public use airport located 19 km northeast of the central business district of Staunton, a city in Augusta County, Virginia.

Climatology

Humid “subtropical” climate (Köppen climate classification Cfa) - characterized by hot, humid summers and cool winters. Significant amounts of precipitation occur in all seasons in most areas. Winter rainfall (and sometimes snowfall) is associated with large storms that the westerlies steer from west to east. Most summer rainfall occurs during thunderstorms and occasional tropical storms (hurricanes).

Runways

Designator Length Width Surface Rops
5/23 1829 46 ASP Yes/Yes
Airport map: 
Aerial View: 

SKYbrary Partners:

Safety knowledge contributed by: